sensor_id;sensor_type;location;lat;lon;timestamp;pressure;altitude;pressure_sealevel;temperature;humidity
51617;BME280;37697;52.588;13.394;2022-09-09T00:04:05;100555.09;;;14.63;83.36
51617;BME280;37697;52.588;13.394;2022-09-09T00:09:17;100543.36;;;14.57;83.40
51617;BME280;37697;52.588;13.394;2022-09-09T00:19:50;100539.70;;;14.44;83.29
51617;BME280;37697;52.588;13.394;2022-09-09T00:24:55;100543.23;;;14.38;83.33
51617;BME280;37697;52.588;13.394;2022-09-09T00:30:20;100537.88;;;14.33;83.42
51617;BME280;37697;52.588;13.394;2022-09-09T00:35:38;100540.03;;;14.28;83.36
51617;BME280;37697;52.588;13.394;2022-09-09T00:40:53;100539.48;;;14.19;83.28
51617;BME280;37697;52.588;13.394;2022-09-09T00:57:28;100526.99;;;14.04;83.46
51617;BME280;37697;52.588;13.394;2022-09-09T01:02:47;100521.66;;;13.99;83.44
51617;BME280;37697;52.588;13.394;2022-09-09T01:07:54;100533.62;;;13.97;83.78
51617;BME280;37697;52.588;13.394;2022-09-09T01:12:56;100538.02;;;13.98;84.38
51617;BME280;37697;52.588;13.394;2022-09-09T01:18:05;100532.16;;;14.00;84.48
51617;BME280;37697;52.588;13.394;2022-09-09T01:23:37;100532.96;;;14.00;84.65
51617;BME280;37697;52.588;13.394;2022-09-09T01:28:39;100543.71;;;14.02;84.88
51617;BME280;37697;52.588;13.394;2022-09-09T01:33:40;100534.67;;;13.99;84.66
51617;BME280;37697;52.588;13.394;2022-09-09T01:38:41;100532.23;;;13.97;84.61
51617;BME280;37697;52.588;13.394;2022-09-09T01:43:42;100537.63;;;13.94;84.49
51617;BME280;37697;52.588;13.394;2022-09-09T01:48:43;100537.80;;;13.89;84.47
51617;BME280;37697;52.588;13.394;2022-09-09T01:53:44;100534.55;;;13.87;84.42
51617;BME280;37697;52.588;13.394;2022-09-09T02:04:47;100540.28;;;13.73;84.12
51617;BME280;37697;52.588;13.394;2022-09-09T02:10:05;100545.77;;;13.67;84.06
51617;BME280;37697;52.588;13.394;2022-09-09T02:15:07;100539.45;;;13.57;83.96
51617;BME280;37697;52.588;13.394;2022-09-09T02:20:12;100543.19;;;13.53;83.93
51617;BME280;37697;52.588;13.394;2022-09-09T02:25:15;100548.88;;;13.48;83.92
51617;BME280;37697;52.588;13.394;2022-09-09T02:30:19;100549.78;;;13.45;83.99
51617;BME280;37697;52.588;13.394;2022-09-09T02:35:23;100555.06;;;13.44;84.11
51617;BME280;37697;52.588;13.394;2022-09-09T02:40:26;100550.69;;;13.43;84.22
51617;BME280;37697;52.588;13.394;2022-09-09T02:45:29;100549.30;;;13.43;84.28
51617;BME280;37697;52.588;13.394;2022-09-09T02:50:54;100547.19;;;13.40;84.40
51617;BME280;37697;52.588;13.394;2022-09-09T03:01:05;100549.31;;;13.35;84.45
51617;BME280;37697;52.588;13.394;2022-09-09T03:06:06;100547.19;;;13.32;84.39
51617;BME280;37697;52.588;13.394;2022-09-09T03:11:07;100555.62;;;13.26;84.21
51617;BME280;37697;52.588;13.394;2022-09-09T03:16:10;100553.69;;;13.18;84.11
51617;BME280;37697;52.588;13.394;2022-09-09T03:21:10;100553.53;;;13.15;84.01
51617;BME280;37697;52.588;13.394;2022-09-09T03:26:12;100554.55;;;13.07;84.05
51617;BME280;37697;52.588;13.394;2022-09-09T03:31:15;100562.20;;;13.02;84.13
51617;BME280;37697;52.588;13.394;2022-09-09T03:36:15;100573.34;;;12.99;84.16
51617;BME280;37697;52.588;13.394;2022-09-09T03:41:16;100568.45;;;12.96;84.15
51617;BME280;37697;52.588;13.394;2022-09-09T03:46:22;100574.95;;;12.92;84.02
51617;BME280;37697;52.588;13.394;2022-09-09T03:51:24;100566.27;;;12.87;84.09
51617;BME280;37697;52.588;13.394;2022-09-09T03:56:25;100578.53;;;12.83;84.07
51617;BME280;37697;52.588;13.394;2022-09-09T04:01:25;100582.50;;;12.80;84.14
51617;BME280;37697;52.588;13.394;2022-09-09T04:06:26;100586.00;;;12.74;84.10
51617;BME280;37697;52.588;13.394;2022-09-09T04:11:27;100578.34;;;12.71;84.27
51617;BME280;37697;52.588;13.394;2022-09-09T04:16:28;100572.81;;;12.71;84.34
51617;BME280;37697;52.588;13.394;2022-09-09T04:21:30;100566.14;;;12.72;84.59
51617;BME280;37697;52.588;13.394;2022-09-09T04:26:31;100571.44;;;12.71;84.45
51617;BME280;37697;52.588;13.394;2022-09-09T04:31:33;100568.73;;;12.68;84.42
51617;BME280;37697;52.588;13.394;2022-09-09T04:36:34;100574.09;;;12.65;84.27
51617;BME280;37697;52.588;13.394;2022-09-09T04:41:35;100582.46;;;12.62;84.14
51617;BME280;37697;52.588;13.394;2022-09-09T04:46:36;100578.38;;;12.60;84.01
51617;BME280;37697;52.588;13.394;2022-09-09T04:51:36;100583.67;;;12.59;84.02
51617;BME280;37697;52.588;13.394;2022-09-09T04:56:37;100587.55;;;12.58;84.21
51617;BME280;37697;52.588;13.394;2022-09-09T05:01:38;100597.22;;;12.58;84.20
51617;BME280;37697;52.588;13.394;2022-09-09T05:06:39;100601.20;;;12.54;84.05
51617;BME280;37697;52.588;13.394;2022-09-09T05:11:40;100606.14;;;12.55;84.31
51617;BME280;37697;52.588;13.394;2022-09-09T05:16:40;100606.58;;;12.59;84.56
51617;BME280;37697;52.588;13.394;2022-09-09T05:21:41;100584.56;;;12.57;84.92
51617;BME280;37697;52.588;13.394;2022-09-09T05:26:42;100584.56;;;12.57;84.92
51617;BME280;37697;52.588;13.394;2022-09-09T05:31:47;100606.54;;;12.79;85.10
51617;BME280;37697;52.588;13.394;2022-09-09T05:36:48;100600.88;;;12.93;85.65
51617;BME280;37697;52.588;13.394;2022-09-09T05:41:49;100607.08;;;13.07;85.85
51617;BME280;37697;52.588;13.394;2022-09-09T05:46:50;100608.89;;;13.21;86.20
51617;BME280;37697;52.588;13.394;2022-09-09T05:51:51;100599.00;;;13.37;86.50
51617;BME280;37697;52.588;13.394;2022-09-09T05:56:52;100603.24;;;13.52;86.98
51617;BME280;37697;52.588;13.394;2022-09-09T06:01:54;100597.38;;;13.62;87.05
51617;BME280;37697;52.588;13.394;2022-09-09T06:06:54;100601.41;;;13.82;87.30
51617;BME280;37697;52.588;13.394;2022-09-09T06:11:55;100615.12;;;14.02;86.92
51617;BME280;37697;52.588;13.394;2022-09-09T06:16:57;100616.09;;;14.30;87.01
51617;BME280;37697;52.588;13.394;2022-09-09T06:21:58;100626.27;;;14.56;86.45
51617;BME280;37697;52.588;13.394;2022-09-09T06:26:59;100628.30;;;14.76;86.04
51617;BME280;37697;52.588;13.394;2022-09-09T06:32:01;100641.03;;;15.07;85.17
51617;BME280;37697;52.588;13.394;2022-09-09T06:37:01;100636.11;;;15.34;84.63
51617;BME280;37697;52.588;13.394;2022-09-09T06:42:03;100630.55;;;15.55;84.02
51617;BME280;37697;52.588;13.394;2022-09-09T06:47:04;100631.37;;;15.62;83.87
51617;BME280;37697;52.588;13.394;2022-09-09T06:52:05;100637.77;;;15.68;84.33
51617;BME280;37697;52.588;13.394;2022-09-09T06:57:06;100648.25;;;15.57;83.79
51617;BME280;37697;52.588;13.394;2022-09-09T07:02:07;100648.41;;;15.45;84.01
51617;BME280;37697;52.588;13.394;2022-09-09T07:07:08;100650.97;;;15.44;84.16
51617;BME280;37697;52.588;13.394;2022-09-09T07:12:12;100645.11;;;15.58;83.95
51617;BME280;37697;52.588;13.394;2022-09-09T07:17:13;100637.76;;;15.83;84.73
51617;BME280;37697;52.588;13.394;2022-09-09T07:22:14;100634.31;;;15.99;84.13
51617;BME280;37697;52.588;13.394;2022-09-09T07:27:16;100644.91;;;16.11;83.62
51617;BME280;37697;52.588;13.394;2022-09-09T07:32:17;100638.92;;;16.22;83.76
51617;BME280;37697;52.588;13.394;2022-09-09T07:37:18;100636.75;;;16.40;84.03
51617;BME280;37697;52.588;13.394;2022-09-09T07:42:19;100640.58;;;16.60;83.73
51617;BME280;37697;52.588;13.394;2022-09-09T07:47:20;100636.16;;;16.71;82.90
51617;BME280;37697;52.588;13.394;2022-09-09T07:52:20;100639.33;;;16.88;83.03
51617;BME280;37697;52.588;13.394;2022-09-09T07:57:21;100643.48;;;17.13;82.96
51617;BME280;37697;52.588;13.394;2022-09-09T08:02:22;100644.83;;;17.37;81.86
51617;BME280;37697;52.588;13.394;2022-09-09T08:07:24;100650.08;;;17.61;81.99
51617;BME280;37697;52.588;13.394;2022-09-09T08:12:25;100649.38;;;17.70;80.46
51617;BME280;37697;52.588;13.394;2022-09-09T08:17:26;100653.27;;;17.81;80.34
51617;BME280;37697;52.588;13.394;2022-09-09T08:22:26;100652.78;;;17.92;80.01
51617;BME280;37697;52.588;13.394;2022-09-09T08:27:28;100660.59;;;18.08;79.97
51617;BME280;37697;52.588;13.394;2022-09-09T08:32:28;100662.72;;;18.21;79.54
51617;BME280;37697;52.588;13.394;2022-09-09T08:37:29;100657.66;;;18.33;78.59
51617;BME280;37697;52.588;13.394;2022-09-09T08:42:39;100659.32;;;18.28;78.17
51617;BME280;37697;52.588;13.394;2022-09-09T08:53:26;100661.83;;;18.55;78.24
51617;BME280;37697;52.588;13.394;2022-09-09T08:58:33;100666.28;;;18.66;77.06
51617;BME280;37697;52.588;13.394;2022-09-09T09:03:54;100661.59;;;18.70;76.21
51617;BME280;37697;52.588;13.394;2022-09-09T09:09:31;100664.11;;;18.75;75.83
51617;BME280;37697;52.588;13.394;2022-09-09T09:14:35;100668.23;;;18.81;76.20
51617;BME280;37697;52.588;13.394;2022-09-09T09:19:39;100659.94;;;18.91;75.73
51617;BME280;37697;52.588;13.394;2022-09-09T09:24:53;100668.29;;;19.07;75.75
51617;BME280;37697;52.588;13.394;2022-09-09T09:30:13;100666.86;;;19.23;75.38
51617;BME280;37697;52.588;13.394;2022-09-09T09:35:17;100674.75;;;19.46;74.15
51617;BME280;37697;52.588;13.394;2022-09-09T09:40:21;100673.91;;;19.72;73.37
51617;BME280;37697;52.588;13.394;2022-09-09T09:50:34;100667.14;;;20.44;71.66
51617;BME280;37697;52.588;13.394;2022-09-09T09:55:35;100672.50;;;20.63;70.76
51617;BME280;37697;52.588;13.394;2022-09-09T10:00:46;100669.50;;;20.89;70.44
51617;BME280;37697;52.588;13.394;2022-09-09T10:05:50;100670.15;;;21.05;69.85
51617;BME280;37697;52.588;13.394;2022-09-09T10:22:28;100653.87;;;21.54;68.09
51617;BME280;37697;52.588;13.394;2022-09-09T10:33:32;100667.26;;;21.51;66.17
51617;BME280;37697;52.588;13.394;2022-09-09T10:38:42;100663.05;;;21.68;66.47
51617;BME280;37697;52.588;13.394;2022-09-09T10:49:52;100676.57;;;22.10;65.62
51617;BME280;37697;52.588;13.394;2022-09-09T10:55:16;100678.55;;;22.09;65.08
51617;BME280;37697;52.588;13.394;2022-09-09T11:00:29;100678.53;;;22.26;63.99
51617;BME280;37697;52.588;13.394;2022-09-09T11:05:44;100673.04;;;22.17;64.39
51617;BME280;37697;52.588;13.394;2022-09-09T11:11:13;100669.83;;;22.18;64.29
51617;BME280;37697;52.588;13.394;2022-09-09T11:21:57;100663.94;;;22.68;62.48
51617;BME280;37697;52.588;13.394;2022-09-09T11:27:22;100674.20;;;22.98;61.40
51617;BME280;37697;52.588;13.394;2022-09-09T11:38:21;100673.09;;;23.09;60.13
51617;BME280;37697;52.588;13.394;2022-09-09T11:43:33;100672.82;;;23.01;59.62
51617;BME280;37697;52.588;13.394;2022-09-09T11:48:35;100668.41;;;23.04;59.64
51617;BME280;37697;52.588;13.394;2022-09-09T11:53:52;100668.70;;;23.51;59.11
51617;BME280;37697;52.588;13.394;2022-09-09T11:59:19;100659.24;;;23.84;58.71
51617;BME280;37697;52.588;13.394;2022-09-09T12:04:29;100650.45;;;24.00;57.68
51617;BME280;37697;52.588;13.394;2022-09-09T12:09:46;100638.64;;;24.08;56.23
51617;BME280;37697;52.588;13.394;2022-09-09T12:25:36;100625.86;;;24.57;55.94
51617;BME280;37697;52.588;13.394;2022-09-09T12:36:17;100621.00;;;24.47;54.17
51617;BME280;37697;52.588;13.394;2022-09-09T12:41:25;100623.84;;;24.54;55.57
51617;BME280;37697;52.588;13.394;2022-09-09T12:51:42;100601.61;;;23.84;54.88
51617;BME280;37697;52.588;13.394;2022-09-09T12:56:46;100614.27;;;23.91;54.85
51617;BME280;37697;52.588;13.394;2022-09-09T13:01:56;100605.57;;;23.69;54.67
51617;BME280;37697;52.588;13.394;2022-09-09T13:07:07;100605.57;;;23.69;54.67
51617;BME280;37697;52.588;13.394;2022-09-09T13:12:16;100617.57;;;23.58;55.12
51617;BME280;37697;52.588;13.394;2022-09-09T13:17:21;100624.32;;;23.43;54.07
51617;BME280;37697;52.588;13.394;2022-09-09T13:27:36;100619.95;;;23.11;53.81
51617;BME280;37697;52.588;13.394;2022-09-09T13:32:39;100611.84;;;23.02;53.88
51617;BME280;37697;52.588;13.394;2022-09-09T13:37:40;100605.55;;;22.91;53.78
51617;BME280;37697;52.588;13.394;2022-09-09T13:42:41;100596.70;;;22.86;54.70
51617;BME280;37697;52.588;13.394;2022-09-09T13:47:43;100584.62;;;22.82;54.08
51617;BME280;37697;52.588;13.394;2022-09-09T13:52:45;100597.45;;;22.79;54.71
51617;BME280;37697;52.588;13.394;2022-09-09T13:57:56;100604.69;;;22.80;54.31
51617;BME280;37697;52.588;13.394;2022-09-09T14:02:58;100595.51;;;22.90;53.38
51617;BME280;37697;52.588;13.394;2022-09-09T14:08:05;100598.41;;;23.01;54.18
51617;BME280;37697;52.588;13.394;2022-09-09T14:13:07;100597.30;;;23.17;53.94
51617;BME280;37697;52.588;13.394;2022-09-09T14:18:12;100603.83;;;23.35;53.86
51617;BME280;37697;52.588;13.394;2022-09-09T14:23:14;100608.47;;;23.41;53.22
51617;BME280;37697;52.588;13.394;2022-09-09T14:28:16;100595.70;;;23.16;53.85
51617;BME280;37697;52.588;13.394;2022-09-09T14:33:17;100594.99;;;23.02;53.66
51617;BME280;37697;52.588;13.394;2022-09-09T14:38:17;100595.75;;;22.95;53.55
51617;BME280;37697;52.588;13.394;2022-09-09T14:43:18;100594.34;;;22.95;53.39
51617;BME280;37697;52.588;13.394;2022-09-09T14:48:20;100597.19;;;23.02;53.90
51617;BME280;37697;52.588;13.394;2022-09-09T14:53:21;100599.59;;;23.00;53.38
51617;BME280;37697;52.588;13.394;2022-09-09T14:58:22;100598.31;;;22.90;53.42
51617;BME280;37697;52.588;13.394;2022-09-09T15:03:22;100593.14;;;22.93;53.70
51617;BME280;37697;52.588;13.394;2022-09-09T15:53:27;100574.34;;;22.04;54.98
51617;BME280;37697;52.588;13.394;2022-09-09T15:58:30;100562.16;;;21.85;55.19
51617;BME280;37697;52.588;13.394;2022-09-09T16:03:36;100562.52;;;21.80;55.65
51617;BME280;37697;52.588;13.394;2022-09-09T16:08:40;100570.66;;;21.75;56.60
51617;BME280;37697;52.588;13.394;2022-09-09T16:13:44;100579.97;;;21.66;56.96
51617;BME280;37697;52.588;13.394;2022-09-09T16:18:47;100585.31;;;21.62;56.95
51617;BME280;37697;52.588;13.394;2022-09-09T16:23:51;100584.44;;;21.54;57.32
51617;BME280;37697;52.588;13.394;2022-09-09T16:28:53;100600.28;;;21.43;57.94
51617;BME280;37697;52.588;13.394;2022-09-09T16:33:59;100611.77;;;21.34;58.51
51617;BME280;37697;52.588;13.394;2022-09-09T16:39:02;100619.44;;;21.24;59.05
51617;BME280;37697;52.588;13.394;2022-09-09T16:44:07;100621.91;;;21.15;59.37
51617;BME280;37697;52.588;13.394;2022-09-09T16:49:12;100604.91;;;21.01;59.89
51617;BME280;37697;52.588;13.394;2022-09-09T16:54:16;100606.39;;;20.91;60.11
51617;BME280;37697;52.588;13.394;2022-09-09T16:59:20;100617.84;;;20.82;60.38
51617;BME280;37697;52.588;13.394;2022-09-09T17:04:25;100614.72;;;20.74;60.69
51617;BME280;37697;52.588;13.394;2022-09-09T17:09:27;100609.55;;;20.63;61.05
51617;BME280;37697;52.588;13.394;2022-09-09T17:14:29;100600.56;;;20.54;61.46
51617;BME280;37697;52.588;13.394;2022-09-09T17:19:31;100589.94;;;20.40;61.50
51617;BME280;37697;52.588;13.394;2022-09-09T17:24:32;100599.23;;;20.21;61.67
51617;BME280;37697;52.588;13.394;2022-09-09T17:29:34;100610.29;;;20.04;61.90
51617;BME280;37697;52.588;13.394;2022-09-09T17:34:36;100599.58;;;19.96;62.23
51617;BME280;37697;52.588;13.394;2022-09-09T17:39:38;100589.14;;;19.83;62.50
51617;BME280;37697;52.588;13.394;2022-09-09T17:44:38;100588.34;;;19.63;62.08
51617;BME280;37697;52.588;13.394;2022-09-09T17:49:40;100594.30;;;19.52;62.28
51617;BME280;37697;52.588;13.394;2022-09-09T17:54:40;100601.63;;;19.41;62.19
51617;BME280;37697;52.588;13.394;2022-09-09T17:59:41;100605.00;;;19.30;61.90
51617;BME280;37697;52.588;13.394;2022-09-09T18:04:42;100605.21;;;19.22;61.74
51617;BME280;37697;52.588;13.394;2022-09-09T18:09:43;100605.58;;;19.10;61.27
51617;BME280;37697;52.588;13.394;2022-09-09T18:14:44;100604.30;;;18.98;60.81
51617;BME280;37697;52.588;13.394;2022-09-09T18:19:44;100606.41;;;18.85;60.52
51617;BME280;37697;52.588;13.394;2022-09-09T18:24:46;100609.20;;;18.79;60.42
51617;BME280;37697;52.588;13.394;2022-09-09T18:29:47;100632.66;;;18.68;60.63
51617;BME280;37697;52.588;13.394;2022-09-09T18:34:48;100652.37;;;18.60;60.60
51617;BME280;37697;52.588;13.394;2022-09-09T18:39:50;100651.41;;;18.46;60.72
51617;BME280;37697;52.588;13.394;2022-09-09T18:44:52;100660.59;;;18.30;60.85
51617;BME280;37697;52.588;13.394;2022-09-09T18:49:52;100674.61;;;18.18;60.81
51617;BME280;37697;52.588;13.394;2022-09-09T18:54:53;100680.35;;;18.03;61.07
51617;BME280;37697;52.588;13.394;2022-09-09T18:59:54;100689.45;;;17.94;61.55
51617;BME280;37697;52.588;13.394;2022-09-09T19:04:55;100695.28;;;17.83;62.06
51617;BME280;37697;52.588;13.394;2022-09-09T19:09:57;100698.88;;;17.77;62.56
51617;BME280;37697;52.588;13.394;2022-09-09T19:14:57;100692.40;;;17.73;63.16
51617;BME280;37697;52.588;13.394;2022-09-09T19:19:58;100687.42;;;17.66;63.57
51617;BME280;37697;52.588;13.394;2022-09-09T19:24:59;100697.20;;;17.60;64.04
51617;BME280;37697;52.588;13.394;2022-09-09T19:30:02;100702.21;;;17.54;64.26
51617;BME280;37697;52.588;13.394;2022-09-09T19:35:04;100707.56;;;17.47;64.42
51617;BME280;37697;52.588;13.394;2022-09-09T19:40:06;100698.16;;;17.39;64.58
51617;BME280;37697;52.588;13.394;2022-09-09T19:45:08;100703.16;;;17.34;64.63
51617;BME280;37697;52.588;13.394;2022-09-09T19:50:10;100705.03;;;17.30;64.83
51617;BME280;37697;52.588;13.394;2022-09-09T19:55:10;100701.33;;;17.19;65.02
51617;BME280;37697;52.588;13.394;2022-09-09T20:00:11;100698.88;;;17.12;65.18
51617;BME280;37697;52.588;13.394;2022-09-09T20:05:13;100705.52;;;17.07;65.30
51617;BME280;37697;52.588;13.394;2022-09-09T20:10:14;100709.80;;;16.98;65.28
51617;BME280;37697;52.588;13.394;2022-09-09T20:15:15;100714.79;;;16.93;65.27
51617;BME280;37697;52.588;13.394;2022-09-09T20:20:16;100719.52;;;16.92;65.35
51617;BME280;37697;52.588;13.394;2022-09-09T20:25:16;100721.03;;;16.90;65.38
51617;BME280;37697;52.588;13.394;2022-09-09T20:30:17;100712.33;;;16.85;65.20
51617;BME280;37697;52.588;13.394;2022-09-09T20:35:18;100711.63;;;16.82;65.10
51617;BME280;37697;52.588;13.394;2022-09-09T20:40:19;100710.92;;;16.79;65.02
51617;BME280;37697;52.588;13.394;2022-09-09T20:45:20;100701.28;;;16.76;65.14
51617;BME280;37697;52.588;13.394;2022-09-09T20:50:20;100698.17;;;16.72;65.15
51617;BME280;37697;52.588;13.394;2022-09-09T20:55:21;100688.41;;;16.65;65.36
51617;BME280;37697;52.588;13.394;2022-09-09T21:00:22;100680.30;;;16.54;65.41
51617;BME280;37697;52.588;13.394;2022-09-09T21:05:22;100677.03;;;16.46;65.66
51617;BME280;37697;52.588;13.394;2022-09-09T21:10:25;100670.44;;;16.38;65.94
51617;BME280;37697;52.588;13.394;2022-09-09T21:15:26;100669.84;;;16.33;66.00
51617;BME280;37697;52.588;13.394;2022-09-09T21:20:27;100668.46;;;16.33;66.23
51617;BME280;37697;52.588;13.394;2022-09-09T21:25:28;100670.74;;;16.30;66.24
51617;BME280;37697;52.588;13.394;2022-09-09T21:30:28;100669.23;;;16.27;66.33
51617;BME280;37697;52.588;13.394;2022-09-09T21:35:33;100668.77;;;16.25;66.39
51617;BME280;37697;52.588;13.394;2022-09-09T21:40:36;100670.63;;;16.21;66.48
51617;BME280;37697;52.588;13.394;2022-09-09T21:45:38;100687.63;;;16.19;66.68
51617;BME280;37697;52.588;13.394;2022-09-09T21:50:42;100688.89;;;16.16;66.87
51617;BME280;37697;52.588;13.394;2022-09-09T21:55:44;100686.91;;;16.10;67.02
51617;BME280;37697;52.588;13.394;2022-09-09T22:00:46;100695.41;;;15.99;66.93
51617;BME280;37697;52.588;13.394;2022-09-09T22:05:47;100691.91;;;15.89;67.18
51617;BME280;37697;52.588;13.394;2022-09-09T22:10:48;100698.26;;;15.84;67.39
51617;BME280;37697;52.588;13.394;2022-09-09T22:15:49;100703.43;;;15.79;67.61
51617;BME280;37697;52.588;13.394;2022-09-09T22:20:50;100701.36;;;15.76;67.72
51617;BME280;37697;52.588;13.394;2022-09-09T22:25:51;100703.55;;;15.77;67.97
51617;BME280;37697;52.588;13.394;2022-09-09T22:30:53;100703.61;;;15.74;68.12
51617;BME280;37697;52.588;13.394;2022-09-09T22:35:54;100703.58;;;15.68;68.23
51617;BME280;37697;52.588;13.394;2022-09-09T22:40:55;100706.90;;;15.61;68.40
51617;BME280;37697;52.588;13.394;2022-09-09T22:45:56;100706.30;;;15.55;68.53
51617;BME280;37697;52.588;13.394;2022-09-09T22:51:02;100707.02;;;15.44;68.68
51617;BME280;37697;52.588;13.394;2022-09-09T22:56:13;100691.59;;;15.34;68.88
51617;BME280;37697;52.588;13.394;2022-09-09T23:01:18;100691.40;;;15.24;69.19
51617;BME280;37697;52.588;13.394;2022-09-09T23:06:21;100693.09;;;15.16;69.48
51617;BME280;37697;52.588;13.394;2022-09-09T23:11:29;100689.37;;;15.12;69.94
51617;BME280;37697;52.588;13.394;2022-09-09T23:16:36;100692.14;;;15.12;70.09
51617;BME280;37697;52.588;13.394;2022-09-09T23:21:39;100698.69;;;15.08;70.18
51617;BME280;37697;52.588;13.394;2022-09-09T23:26:40;100694.13;;;15.03;70.64
51617;BME280;37697;52.588;13.394;2022-09-09T23:31:44;100693.72;;;15.07;70.99
51617;BME280;37697;52.588;13.394;2022-09-09T23:36:46;100681.94;;;15.10;71.21
51617;BME280;37697;52.588;13.394;2022-09-09T23:41:47;100681.27;;;15.13;71.21
51617;BME280;37697;52.588;13.394;2022-09-09T23:46:49;100663.83;;;15.13;71.28
51617;BME280;37697;52.588;13.394;2022-09-09T23:51:50;100667.84;;;15.09;71.42
51617;BME280;37697;52.588;13.394;2022-09-09T23:56:50;100670.14;;;15.07;71.62
